Time;durP1;ratioP1;P1;durP2;ratioP2;P2;SDS_P1;SDS_P2;PMS_P1;PMS_P2;Temp;Humidity;BMP_temperature;BMP_pressure;BME280_temperature;BME280_humidity;BME280_pressure;Samples;Min_cycle;Max_cycle;Signal;HPM_P1;HPM_P2
2022/01/27 00:01:25;;;;;;;40.57;21.80;;;4.10;99.90;;;;;;5017378;28;20132;-88
2022/01/27 00:04:52;;;;;;;45.43;20.90;;;4.20;99.90;;;;;;5011369;28;20046;-88
2022/01/27 00:07:18;;;;;;;42.07;19.97;;;4.00;99.90;;;;;;5013836;28;20058;-88
2022/01/27 00:10:02;;;;;;;46.20;21.83;;;4.40;99.90;;;;;;5014643;28;20564;-88
2022/01/27 00:12:28;;;;;;;44.73;20.83;;;4.20;99.90;;;;;;5013136;28;20390;-88
2022/01/27 00:15:07;;;;;;;40.53;19.47;;;4.20;99.90;;;;;;5013723;28;20048;-87
2022/01/27 00:17:58;;;;;;;45.67;21.17;;;4.20;99.90;;;;;;5013227;28;20058;-88
2022/01/27 00:20:23;;;;;;;44.90;20.27;;;3.90;99.90;;;;;;5013314;28;20049;-87
2022/01/27 00:22:49;;;;;;;42.10;20.37;;;4.80;99.90;;;;;;5013104;28;20046;-87
2022/01/27 00:25:15;;;;;;;40.13;20.33;;;4.20;99.90;;;;;;5013972;28;20038;-87
2022/01/27 00:27:46;;;;;;;37.47;19.40;;;4.20;99.90;;;;;;5012452;28;20054;-87
2022/01/27 00:30:13;;;;;;;36.90;19.00;;;4.70;99.90;;;;;;5013518;28;20073;-87
2022/01/27 00:32:44;;;;;;;38.93;19.47;;;4.40;99.90;;;;;;5013184;28;20124;-87
2022/01/27 00:35:13;;;;;;;40.57;20.97;;;4.20;99.90;;;;;;5012829;28;20513;-87
2022/01/27 00:37:39;;;;;;;44.07;21.30;;;4.50;99.90;;;;;;5012862;28;20049;-88
2022/01/27 00:40:08;;;;;;;37.97;20.03;;;4.20;99.90;;;;;;5012457;28;20057;-87
2022/01/27 00:42:34;;;;;;;40.10;19.17;;;4.40;99.90;;;;;;5012885;28;20053;-88
2022/01/27 00:45:00;;;;;;;41.30;21.57;;;4.20;99.90;;;;;;5012918;28;20557;-87
2022/01/27 00:47:25;;;;;;;44.83;21.07;;;4.20;99.90;;;;;;5012254;28;20137;-87
2022/01/27 00:49:54;;;;;;;41.73;21.20;;;4.40;99.90;;;;;;5013242;28;20501;-87
2022/01/27 00:55:26;;;;;;;39.50;19.47;;;5.40;99.90;;;;;;4993956;28;20069;-87
2022/01/27 01:00:52;;;;;;;43.07;21.20;;;4.20;99.90;;;;;;5005344;28;20049;-87
2022/01/27 01:03:27;;;;;;;41.30;22.03;;;4.10;99.90;;;;;;5023332;28;20065;-87
2022/01/27 01:06:21;;;;;;;39.77;20.60;;;4.10;99.90;;;;;;5016111;28;20401;-87
2022/01/27 01:09:36;;;;;;;38.25;19.92;;;4.20;99.90;;;;;;5015171;28;20052;-87
2022/01/27 01:12:13;;;;;;;40.53;20.73;;;3.90;99.90;;;;;;5014813;28;20050;-89
2022/01/27 01:14:42;;;;;;;39.47;20.23;;;4.30;99.90;;;;;;5015031;28;20057;-88
2022/01/27 01:30:51;;;;;;;40.77;19.83;;;3.80;99.90;;;;;;5032660;28;20045;-87
2022/01/27 01:33:27;;;;;;;41.40;20.10;;;4.20;99.90;;;;;;5015879;28;20486;-88
2022/01/27 01:36:04;;;;;;;39.30;18.90;;;4.20;99.90;;;;;;5015674;28;20098;-88
2022/01/27 01:38:30;;;;;;;36.27;18.80;;;4.30;99.90;;;;;;5014860;28;20428;-88
2022/01/27 01:40:57;;;;;;;35.57;18.30;;;5.90;99.90;;;;;;5022017;22;20057;-87
2022/01/27 01:43:23;;;;;;;37.67;19.47;;;4.30;99.90;;;;;;5014053;28;20052;-88
2022/01/27 01:46:01;;;;;;;36.90;18.23;;;4.30;99.90;;;;;;5032696;28;20042;-88
2022/01/27 01:48:33;;;;;;;38.67;18.90;;;4.40;99.90;;;;;;5015456;28;20045;-88
2022/01/27 01:51:01;;;;;;;40.77;19.30;;;4.80;99.90;;;;;;5032361;28;20087;-87
2022/01/27 01:53:27;;;;;;;37.53;19.30;;;4.30;99.90;;;;;;5015246;28;20045;-88
2022/01/27 01:55:53;;;;;;;34.07;17.73;;;4.30;99.90;;;;;;5015774;28;20088;-87
2022/01/27 01:58:19;;;;;;;35.17;17.90;;;4.40;99.90;;;;;;5014299;28;20413;-87
2022/01/27 02:01:00;;;;;;;40.93;19.93;;;4.50;99.90;;;;;;5015370;28;20049;-87
2022/01/27 02:03:25;;;;;;;32.93;16.83;;;4.20;99.90;;;;;;5014983;28;20046;-87
2022/01/27 02:05:55;;;;;;;36.60;18.20;;;4.20;99.90;;;;;;5014628;28;20042;-87
2022/01/27 02:19:52;;;;;;;35.70;17.50;;;4.40;99.90;;;;;;4955333;28;20809;-87
2022/01/27 02:22:26;;;;;;;39.85;20.45;;;4.50;99.90;;;;;;4964848;28;20053;-87
2022/01/27 02:27:27;;;;;;;37.33;17.93;;;4.50;99.90;;;;;;5056045;22;20076;-87
2022/01/27 02:29:53;;;;;;;37.50;19.47;;;4.40;99.90;;;;;;5035051;28;20049;-88
2022/01/27 02:32:19;;;;;;;36.47;18.37;;;4.30;99.90;;;;;;5034558;28;20489;-87
2022/01/27 02:34:45;;;;;;;35.33;17.83;;;4.40;99.90;;;;;;5033927;28;20462;-87
2022/01/27 02:37:12;;;;;;;36.23;19.03;;;4.50;99.90;;;;;;5034394;28;20044;-87
2022/01/27 02:39:38;;;;;;;36.10;19.27;;;4.40;99.90;;;;;;5050984;28;20515;-87
2022/01/27 02:42:11;;;;;;;33.37;17.57;;;4.40;99.90;;;;;;5034752;28;20045;-87
2022/01/27 02:45:01;;;;;;;35.33;18.83;;;4.50;99.90;;;;;;5034021;28;20404;-87
2022/01/27 02:47:27;;;;;;;37.67;18.83;;;4.40;99.90;;;;;;5033938;28;20084;-87
2022/01/27 02:49:53;;;;;;;39.77;18.70;;;4.30;99.90;;;;;;5034810;28;20079;-87
2022/01/27 02:52:19;;;;;;;37.60;19.10;;;4.40;99.90;;;;;;5034291;28;20049;-87
2022/01/27 02:54:45;;;;;;;38.27;19.53;;;4.40;99.90;;;;;;5051040;28;20060;-88
2022/01/27 02:57:10;;;;;;;37.03;18.10;;;4.60;99.90;;;;;;5034102;28;20053;-87
2022/01/27 02:59:37;;;;;;;35.83;17.67;;;4.70;99.90;;;;;;5034355;28;20124;-87
2022/01/27 03:02:05;;;;;;;36.83;19.07;;;5.90;99.90;;;;;;5032300;28;20178;-87
2022/01/27 03:04:36;;;;;;;37.33;18.57;;;3.80;99.90;;;;;;5033250;28;20037;-87
2022/01/27 03:07:06;;;;;;;38.13;17.00;;;4.50;99.90;;;;;;5034675;28;20140;-88
2022/01/27 03:09:33;;;;;;;34.90;16.67;;;5.20;99.90;;;;;;5033261;28;20080;-87
2022/01/27 03:12:00;;;;;;;34.67;17.50;;;6.10;99.90;;;;;;5034593;28;20125;-87
2022/01/27 03:14:33;;;;;;;33.03;17.87;;;4.40;99.90;;;;;;5033678;28;20055;-87
2022/01/27 03:17:10;;;;;;;38.72;18.15;;;4.70;99.90;;;;;;5033530;28;20128;-88
2022/01/27 03:19:39;;;;;;;35.30;17.57;;;4.80;99.90;;;;;;5035519;28;20045;-87
2022/01/27 03:22:13;;;;;;;34.67;17.60;;;5.40;99.90;;;;;;5063083;22;20057;-87
2022/01/27 03:24:42;;;;;;;37.33;17.93;;;4.70;99.90;;;;;;5038913;28;20107;-87
2022/01/27 03:27:21;;;;;;;35.27;17.83;;;6.30;99.90;;;;;;5037904;28;20049;-87
2022/01/27 03:29:47;;;;;;;36.33;18.10;;;4.60;99.90;;;;;;5036620;28;20041;-88
2022/01/27 03:32:13;;;;;;;36.83;17.20;;;5.00;99.90;;;;;;5037646;28;20067;-88
2022/01/27 03:34:51;;;;;;;35.83;17.37;;;4.50;99.90;;;;;;5036961;28;20095;-87
2022/01/27 03:37:19;;;;;;;34.07;17.63;;;4.80;99.90;;;;;;5037107;28;20052;-87
2022/01/27 03:39:54;;;;;;;38.43;18.10;;;4.50;99.90;;;;;;5055011;28;20084;-87
2022/01/27 03:42:20;;;;;;;38.03;17.80;;;4.40;99.90;;;;;;5055335;28;20056;-87
2022/01/27 03:44:49;;;;;;;38.90;18.40;;;4.60;99.90;;;;;;5036307;28;20052;-87
2022/01/27 03:47:21;;;;;;;33.90;17.37;;;4.90;99.90;;;;;;5037178;28;20083;-89
2022/01/27 03:49:52;;;;;;;34.83;18.00;;;4.40;99.90;;;;;;5037108;28;20138;-87
2022/01/27 03:52:18;;;;;;;34.67;17.80;;;4.50;99.90;;;;;;5037325;28;20056;-87
2022/01/27 03:54:43;;;;;;;35.77;18.63;;;4.60;99.90;;;;;;5037005;28;20045;-87
2022/01/27 03:57:12;;;;;;;39.33;18.73;;;4.70;99.90;;;;;;5036252;28;20156;-87
2022/01/27 03:59:44;;;;;;;36.97;17.67;;;4.70;99.90;;;;;;5037102;28;20079;-87
2022/01/27 04:02:10;;;;;;;40.07;19.00;;;4.40;99.90;;;;;;5037738;28;20563;-87
2022/01/27 04:04:41;;;;;;;34.87;16.83;;;4.60;99.90;;;;;;5053530;28;20045;-87
2022/01/27 04:07:10;;;;;;;35.53;18.07;;;4.60;99.90;;;;;;5038120;28;20041;-87
2022/01/27 04:09:41;;;;;;;39.07;18.90;;;4.70;99.90;;;;;;5037494;28;20108;-89
2022/01/27 04:12:07;;;;;;;36.30;18.60;;;5.50;99.90;;;;;;5036244;28;20221;-87
2022/01/27 04:14:33;;;;;;;34.63;17.93;;;4.60;99.90;;;;;;5036128;28;20055;-86
2022/01/27 04:16:58;;;;;;;36.97;18.47;;;4.40;99.90;;;;;;5036362;28;20049;-86
2022/01/27 04:19:24;;;;;;;37.53;18.17;;;5.60;99.90;;;;;;5036149;28;20098;-87
2022/01/27 04:21:53;;;;;;;34.13;18.40;;;4.60;99.90;;;;;;5032438;28;20512;-87
2022/01/27 04:24:31;;;;;;;35.80;17.80;;;4.30;99.90;;;;;;5040206;22;20116;-87
2022/01/27 04:27:17;;;;;;;38.37;17.93;;;4.10;99.90;;;;;;5033287;28;20061;-87
2022/01/27 04:29:42;;;;;;;39.73;18.83;;;4.60;99.90;;;;;;5033545;28;20053;-87
2022/01/27 04:32:10;;;;;;;34.33;17.07;;;4.50;99.90;;;;;;5032630;28;20107;-87
2022/01/27 04:34:39;;;;;;;32.73;16.60;;;5.30;99.90;;;;;;5033552;28;20068;-87
2022/01/27 04:37:05;;;;;;;33.07;16.70;;;5.30;99.90;;;;;;5032696;28;20052;-86
2022/01/27 04:39:42;;;;;;;36.33;17.73;;;4.50;99.90;;;;;;5033108;28;20055;-87
2022/01/27 04:42:29;;;;;;;35.87;17.30;;;4.50;99.90;;;;;;5034430;28;20045;-88
2022/01/27 04:44:59;;;;;;;34.13;17.37;;;4.50;99.90;;;;;;5032768;28;20110;-87
2022/01/27 04:47:34;;;;;;;39.83;19.07;;;4.50;99.90;;;;;;5031667;28;20041;-87
2022/01/27 04:50:00;;;;;;;37.30;18.03;;;4.50;99.90;;;;;;5032956;28;20053;-87
2022/01/27 04:52:36;;;;;;;37.10;18.23;;;4.70;99.90;;;;;;5032705;28;20056;-87
2022/01/27 04:55:06;;;;;;;35.07;16.73;;;5.40;99.90;;;;;;5031785;28;20088;-87
2022/01/27 04:57:32;;;;;;;35.60;17.77;;;4.80;99.90;;;;;;5032227;28;20050;-86
2022/01/27 04:59:58;;;;;;;35.83;18.10;;;4.60;99.90;;;;;;5033727;28;20051;-87
2022/01/27 05:04:59;;;;;;;35.73;17.13;;;4.70;99.90;;;;;;5032775;28;20053;-87
2022/01/27 05:07:30;;;;;;;31.73;15.97;;;5.70;99.90;;;;;;5030969;28;20541;-87
2022/01/27 05:10:00;;;;;;;34.77;17.80;;;4.80;99.90;;;;;;5032789;28;20501;-87
2022/01/27 05:12:39;;;;;;;34.47;17.57;;;5.80;99.90;;;;;;5032229;28;20037;-86
2022/01/27 05:15:06;;;;;;;38.00;17.67;;;4.60;99.90;;;;;;5031871;28;20054;-87
2022/01/27 05:17:43;;;;;;;33.53;16.67;;;4.90;99.90;;;;;;5032218;28;20501;-87
2022/01/27 05:20:12;;;;;;;36.23;17.50;;;5.10;99.90;;;;;;5032516;28;20124;-87
2022/01/27 05:23:04;;;;;;;35.03;17.00;;;6.50;99.90;;;;;;5031191;28;20053;-87
2022/01/27 05:25:30;;;;;;;34.50;16.20;;;5.30;99.90;;;;;;5033305;28;20092;-87
2022/01/27 05:27:55;;;;;;;37.30;16.90;;;4.80;99.90;;;;;;5032063;28;20041;-87
2022/01/27 05:30:21;;;;;;;31.67;17.20;;;4.80;99.90;;;;;;5032595;28;20045;-86
2022/01/27 05:32:46;;;;;;;33.90;17.10;;;4.90;99.90;;;;;;5032174;28;20092;-87
2022/01/27 05:35:21;;;;;;;34.17;18.77;;;5.70;99.90;;;;;;5032281;28;20511;-87
2022/01/27 05:37:47;;;;;;;40.07;17.87;;;4.70;99.90;;;;;;5031523;28;20098;-87
2022/01/27 05:40:22;;;;;;;33.73;15.70;;;5.70;99.90;;;;;;5032079;28;20037;-87
2022/01/27 05:42:54;;;;;;;35.83;16.67;;;4.70;99.90;;;;;;5030540;28;20056;-86
2022/01/27 05:45:32;;;;;;;36.87;16.03;;;4.70;99.90;;;;;;5032236;28;20045;-86
2022/01/27 05:48:04;;;;;;;31.37;16.07;;;6.10;99.90;;;;;;5031837;28;20046;-88
2022/01/27 05:50:31;;;;;;;34.70;15.87;;;4.80;99.90;;;;;;5031118;28;20141;-86
2022/01/27 05:53:22;;;;;;;35.77;17.10;;;4.70;99.90;;;;;;5031668;28;20046;-87
2022/01/27 05:55:47;;;;;;;32.60;16.53;;;4.40;99.90;;;;;;5031033;28;20053;-87
2022/01/27 05:58:13;;;;;;;36.37;16.47;;;4.80;99.90;;;;;;5031473;28;20050;-87
2022/01/27 06:00:42;;;;;;;36.17;17.13;;;4.80;99.90;;;;;;5032693;28;20120;-86
2022/01/27 06:03:14;;;;;;;34.43;17.13;;;4.70;99.90;;;;;;5031371;28;20053;-87
2022/01/27 06:05:45;;;;;;;35.43;16.57;;;4.80;99.90;;;;;;5032032;28;20063;-87
2022/01/27 06:08:11;;;;;;;35.30;15.87;;;5.00;99.90;;;;;;5032960;28;20039;-86
2022/01/27 06:10:50;;;;;;;34.17;16.97;;;6.10;99.90;;;;;;5030705;28;20120;-87
2022/01/27 06:13:16;;;;;;;37.70;18.37;;;4.60;99.90;;;;;;5032614;28;20096;-87
2022/01/27 06:15:41;;;;;;;40.47;17.33;;;4.70;99.90;;;;;;5032408;28;20053;-86
2022/01/27 06:18:13;;;;;;;35.47;17.77;;;5.60;99.90;;;;;;5030915;28;20054;-86
2022/01/27 06:20:47;;;;;;;41.93;17.60;;;3.00;99.90;;;;;;5032358;28;20540;-86
2022/01/27 06:23:14;;;;;;;41.03;18.93;;;4.70;99.90;;;;;;5031234;28;20133;-86
2022/01/27 06:25:40;;;;;;;38.63;18.13;;;5.50;99.90;;;;;;5029994;28;20065;-87
2022/01/27 06:28:06;;;;;;;42.03;17.73;;;4.70;99.90;;;;;;5032664;28;20044;-86
2022/01/27 06:30:34;;;;;;;40.20;17.00;;;4.70;99.90;;;;;;5032635;28;20080;-86
2022/01/27 06:33:04;;;;;;;42.13;16.93;;;4.60;99.90;;;;;;5030681;28;20042;-86
2022/01/27 06:35:31;;;;;;;41.80;17.50;;;4.80;99.90;;;;;;5031437;28;20111;-86
2022/01/27 06:37:56;;;;;;;43.50;17.37;;;4.70;99.90;;;;;;5031519;28;20124;-86
2022/01/27 06:40:28;;;;;;;47.23;18.77;;;4.70;99.90;;;;;;5030573;28;20545;-87
2022/01/27 06:43:03;;;;;;;48.67;20.87;;;4.20;99.90;;;;;;5031234;28;20084;-86
2022/01/27 06:45:29;;;;;;;46.17;19.20;;;4.80;99.90;;;;;;5032386;28;20129;-87
2022/01/27 06:48:04;;;;;;;50.77;20.57;;;6.30;99.90;;;;;;5031278;28;20456;-87
2022/01/27 06:50:37;;;;;;;49.00;20.47;;;3.90;99.90;;;;;;5032123;28;20442;-87
2022/01/27 06:53:06;;;;;;;51.63;20.40;;;4.60;99.90;;;;;;5030472;28;20056;-86
2022/01/27 06:55:38;;;;;;;49.40;19.60;;;4.30;99.90;;;;;;5035741;28;20037;-86
2022/01/27 06:58:04;;;;;;;47.73;18.90;;;3.60;99.90;;;;;;5035972;28;20041;-86
2022/01/27 07:00:29;;;;;;;51.57;19.20;;;4.70;99.90;;;;;;5033784;28;20441;-86
2022/01/27 07:02:57;;;;;;;47.33;19.17;;;4.70;99.90;;;;;;5034997;28;20096;-86
2022/01/27 07:05:23;;;;;;;55.93;20.77;;;4.70;99.90;;;;;;5035149;28;20084;-86
2022/01/27 07:08:01;;;;;;;46.77;20.17;;;5.40;99.90;;;;;;5033818;28;20081;-86
2022/01/27 07:10:33;;;;;;;47.00;19.90;;;4.40;99.90;;;;;;5034074;28;20129;-86
2022/01/27 07:13:01;;;;;;;51.63;21.37;;;4.90;99.90;;;;;;5035291;28;20061;-86
2022/01/27 07:15:33;;;;;;;48.27;19.70;;;4.80;99.90;;;;;;5033187;28;20052;-87
2022/01/27 07:18:08;;;;;;;46.13;19.97;;;4.80;99.90;;;;;;5034207;28;20045;-87
2022/01/27 07:20:39;;;;;;;50.43;20.50;;;4.50;99.90;;;;;;5034067;28;20168;-86
2022/01/27 07:23:16;;;;;;;45.63;18.97;;;4.70;99.90;;;;;;5034611;28;20049;-86
2022/01/27 07:26:32;;;;;;;45.83;18.57;;;5.80;99.90;;;;;;5034384;28;20089;-87
2022/01/27 07:28:58;;;;;;;47.20;19.63;;;5.20;99.90;;;;;;5032744;28;20054;-86
2022/01/27 07:31:36;;;;;;;45.40;21.00;;;4.90;99.90;;;;;;5034298;28;20046;-88
2022/01/27 07:34:02;;;;;;;75.50;44.60;;;5.90;99.90;;;;;;5035835;28;20052;-90
2022/01/27 07:36:28;;;;;;;55.00;25.77;;;4.90;99.90;;;;;;5033306;28;20144;-89
2022/01/27 07:38:54;;;;;;;40.37;20.30;;;6.00;99.90;;;;;;5034737;28;20046;-91
2022/01/27 07:41:35;;;;;;;41.50;18.80;;;5.80;99.90;;;;;;5035179;28;20056;-92
2022/01/27 07:44:00;;;;;;;39.60;18.53;;;5.80;99.90;;;;;;5035355;28;20041;-88
2022/01/27 07:46:35;;;;;;;35.40;17.07;;;5.20;99.90;;;;;;5035015;28;20397;-92
2022/01/27 07:49:13;;;;;;;41.87;18.73;;;6.60;99.90;;;;;;5038354;28;20088;-93
2022/01/27 07:51:42;;;;;;;34.27;16.77;;;5.10;99.90;;;;;;5092237;22;20144;-88
2022/01/27 07:54:08;;;;;;;32.17;15.37;;;5.10;99.90;;;;;;5037410;28;20128;-87
2022/01/27 07:56:37;;;;;;;32.67;14.97;;;5.70;99.90;;;;;;5035921;28;20045;-89
2022/01/27 07:59:06;;;;;;;31.47;13.37;;;5.10;99.90;;;;;;5036640;28;20039;-89
2022/01/27 08:01:35;;;;;;;35.73;17.50;;;5.30;99.90;;;;;;5036797;28;20070;-89
2022/01/27 08:04:11;;;;;;;33.97;16.10;;;5.10;99.90;;;;;;5036410;28;20041;-86
2022/01/27 08:06:43;;;;;;;30.17;15.67;;;4.90;99.90;;;;;;5054416;28;20053;-90
2022/01/27 08:09:39;;;;;;;35.27;15.03;;;5.90;99.90;;;;;;5054706;28;20043;-87
2022/01/27 08:12:14;;;;;;;33.33;17.13;;;6.40;99.90;;;;;;5036828;28;20064;-87
2022/01/27 08:14:40;;;;;;;31.07;15.60;;;5.60;99.90;;;;;;5026720;28;20046;-87
2022/01/27 08:17:23;;;;;;;30.57;14.77;;;4.90;99.90;;;;;;5033650;28;20052;-86
2022/01/27 08:19:52;;;;;;;29.80;13.80;;;5.20;99.90;;;;;;5016956;28;20045;-88
2022/01/27 08:25:01;;;;;;;30.50;16.13;;;5.50;99.90;;;;;;5068150;22;20493;-92
2022/01/27 08:27:30;;;;;;;31.77;15.63;;;5.50;99.90;;;;;;5027304;28;20075;-91
2022/01/27 08:30:03;;;;;;;30.33;15.33;;;5.60;99.90;;;;;;5021363;22;20126;-94
2022/01/27 08:33:05;;;;;;;28.20;12.87;;;5.70;99.90;;;;;;5071462;22;20040;-91
2022/01/27 08:36:00;;;;;;;27.48;13.00;;;6.40;99.90;;;;;;5068581;22;20091;-92
2022/01/27 08:38:29;;;;;;;28.87;14.50;;;5.00;99.90;;;;;;5049982;22;20187;-90
2022/01/27 08:40:59;;;;;;;30.07;14.70;;;7.20;99.90;;;;;;5056662;28;20040;-92
2022/01/27 08:43:36;;;;;;;34.70;15.50;;;5.70;99.90;;;;;;5056269;28;20045;-89
2022/01/27 08:46:11;;;;;;;35.30;16.57;;;7.20;99.90;;;;;;5063418;22;20045;-93
2022/01/27 08:48:42;;;;;;;35.07;16.17;;;5.80;99.90;;;;;;5071157;22;20480;-91
2022/01/27 08:51:11;;;;;;;40.30;17.07;;;6.40;99.90;;;;;;5039182;28;20124;-92
2022/01/27 08:53:37;;;;;;;35.03;15.90;;;6.00;99.90;;;;;;5053464;23;20489;-93
2022/01/27 09:02:32;;;;;;;40.67;17.07;;;5.70;99.90;;;;;;5026710;28;20062;-93
2022/01/27 09:04:58;;;;;;;;;;;6.50;99.90;;;;;;5013517;28;20474;-90
2022/01/27 09:07:24;;;;;;;39.90;17.23;;;;;;;;;;5013658;28;19961;-93
2022/01/27 09:10:01;;;;;;;37.17;17.87;;;6.10;99.90;;;;;;5014303;28;20041;-93
2022/01/27 09:12:35;;;;;;;38.53;17.80;;;5.80;99.90;;;;;;5012872;28;20417;-92
2022/01/27 09:15:04;;;;;;;42.13;19.40;;;5.90;99.90;;;;;;5012590;28;20038;-91
2022/01/27 09:17:45;;;;;;;46.43;18.13;;;6.20;99.90;;;;;;5012114;28;20132;-90
2022/01/27 09:20:12;;;;;;;43.03;17.03;;;6.10;99.90;;;;;;5014509;28;20064;-91
2022/01/27 09:22:41;;;;;;;44.13;17.23;;;6.10;99.90;;;;;;5011237;28;20437;-91
2022/01/27 09:25:31;;;;;;;39.53;16.83;;;5.80;99.90;;;;;;5013804;28;20046;-93
2022/01/27 09:28:03;;;;;;;45.37;17.50;;;7.80;99.90;;;;;;5012017;28;20393;-91
2022/01/27 09:30:29;;;;;;;41.77;16.57;;;6.30;99.90;;;;;;5011815;28;20096;-91
2022/01/27 09:32:56;;;;;;;42.40;16.43;;;6.40;99.90;;;;;;5012258;28;20042;-90
2022/01/27 09:35:31;;;;;;;42.37;16.97;;;6.30;99.90;;;;;;5011793;28;20474;-92
2022/01/27 09:38:16;;;;;;;39.07;15.67;;;6.40;99.90;;;;;;5013341;28;20057;-90
2022/01/27 09:40:57;;;;;;;37.73;16.13;;;6.60;99.90;;;;;;5011753;28;20486;-90
2022/01/27 09:43:35;;;;;;;40.57;15.60;;;7.70;99.90;;;;;;5011379;28;20107;-90
2022/01/27 09:46:35;;;;;;;39.67;15.00;;;7.20;99.90;;;;;;5014265;28;20947;-90
2022/01/27 09:55:21;;;;;;;32.53;13.17;;;6.80;99.90;;;;;;4991608;22;20085;-92
2022/01/27 10:00:21;;;;;;;28.27;12.47;;;7.10;99.90;;;;;;5033413;23;20144;-90
2022/01/27 10:03:20;;;;;;;31.13;11.67;;;6.90;99.90;;;;;;4994507;28;20474;-91
2022/01/27 10:05:49;;;;;;;29.60;12.30;;;7.40;99.90;;;;;;4995096;28;20371;-92
2022/01/27 10:08:20;;;;;;;27.33;10.03;;;7.00;99.90;;;;;;4995341;28;20099;-92
2022/01/27 10:10:51;;;;;;;25.83;10.87;;;7.80;99.90;;;;;;4993743;28;20042;-94
2022/01/27 10:14:17;;;;;;;22.00;9.77;;;7.60;99.90;;;;;;5045117;23;20050;-92
2022/01/27 10:21:12;;;;;;;23.53;9.23;;;7.00;99.90;;;;;;4974220;28;20165;-94
2022/01/27 10:23:52;;;;;;;24.40;9.30;;;6.70;99.90;;;;;;4977569;28;20087;-93
2022/01/27 10:26:31;;;;;;;24.37;9.13;;;8.50;99.90;;;;;;5014787;28;20052;-94
2022/01/27 10:32:54;;;;;;;23.00;8.80;;;8.40;99.90;;;;;;5017600;28;20107;-94
2022/01/27 10:35:31;;;;;;;26.52;11.63;;;7.50;99.90;;;;;;4936695;29;20134;-94
2022/01/27 10:40:53;;;;;;;28.83;10.23;;;8.50;99.90;;;;;;4920946;29;20047;-93
2022/01/27 10:43:22;;;;;;;26.23;12.63;;;8.30;99.90;;;;;;4936667;29;20055;-94
2022/01/27 10:46:24;;;;;;;19.33;9.27;;;8.10;99.90;;;;;;4936790;28;20453;-92
2022/01/27 10:49:02;;;;;;;24.03;9.77;;;7.70;99.90;;;;;;5011161;28;20493;-93
2022/01/27 10:51:57;;;;;;;25.20;10.73;;;9.00;99.90;;;;;;5029349;28;20056;-93
2022/01/27 10:54:48;;;;;;;25.63;9.73;;;7.50;99.90;;;;;;5023536;28;20069;-91
2022/01/27 10:57:14;;;;;;;24.73;9.03;;;8.40;99.90;;;;;;5004060;28;20401;-93
2022/01/27 10:59:44;;;;;;;21.67;8.30;;;7.90;99.90;;;;;;4998101;28;20046;-92
2022/01/27 11:02:21;;;;;;;27.43;9.13;;;6.90;99.90;;;;;;4998339;28;20038;-92
2022/01/27 11:04:49;;;;;;;24.10;8.90;;;7.30;99.90;;;;;;4998180;28;20140;-93
2022/01/27 11:07:24;;;;;;;21.17;9.07;;;7.70;99.90;;;;;;4997947;28;20042;-91
2022/01/27 11:09:49;;;;;;;23.87;8.43;;;8.70;99.90;;;;;;4997820;28;20081;-92
2022/01/27 11:12:18;;;;;;;32.67;12.77;;;7.80;99.90;;;;;;5019601;28;20073;-91
2022/01/27 11:14:56;;;;;;;22.97;9.87;;;7.70;99.90;;;;;;5017010;28;20394;-92
2022/01/27 11:17:29;;;;;;;24.13;8.37;;;7.70;99.90;;;;;;4999632;28;20549;-91
2022/01/27 11:20:21;;;;;;;21.42;9.45;;;7.40;99.90;;;;;;4998517;28;20045;-93
2022/01/27 11:23:11;;;;;;;;;;;7.50;99.90;;;;;;4998898;28;20426;-94
2022/01/27 11:25:51;;;;;;;19.37;7.17;;;7.80;99.90;;;;;;5014398;28;20431;-93
2022/01/27 11:28:21;;;;;;;19.93;8.10;;;7.60;99.90;;;;;;4998131;28;20054;-93
2022/01/27 11:31:24;;;;;;;26.17;8.37;;;7.50;99.90;;;;;;5014951;28;20493;-96
2022/01/27 11:34:57;;;;;;;21.07;8.10;;;7.80;99.90;;;;;;4998084;28;20046;-90
2022/01/27 11:37:38;;;;;;;20.47;7.47;;;7.20;99.90;;;;;;4997743;28;20054;-90
2022/01/27 11:40:17;;;;;;;23.57;6.77;;;7.60;99.90;;;;;;4997063;28;20052;-90
2022/01/27 11:43:06;;;;;;;19.57;6.57;;;7.80;99.90;;;;;;4996829;28;20085;-89
2022/01/27 11:45:35;;;;;;;18.13;6.10;;;7.60;99.90;;;;;;4997639;28;20081;-90
2022/01/27 11:48:27;;;;;;;21.13;6.33;;;7.90;99.90;;;;;;4997745;28;20054;-90
2022/01/27 11:51:22;;;;;;;17.77;5.70;;;7.90;99.90;;;;;;4998000;28;20052;-91
2022/01/27 11:56:31;;;;;;;17.37;5.27;;;8.00;99.90;;;;;;5032022;22;20263;-91
2022/01/27 11:59:08;;;;;;;15.35;5.05;;;8.30;99.90;;;;;;5008950;28;20052;-90
2022/01/27 12:01:38;;;;;;;16.63;4.83;;;7.90;99.90;;;;;;4998875;28;20129;-96
2022/01/27 12:04:07;;;;;;;20.30;5.23;;;8.00;99.90;;;;;;4998145;28;20050;-95
2022/01/27 12:07:03;;;;;;;20.20;4.97;;;8.00;99.90;;;;;;4998934;28;20050;-95
2022/01/27 12:15:02;;;;;;;15.70;4.37;;;8.30;99.90;;;;;;5056983;22;20057;-93
2022/01/27 12:17:34;;;;;;;14.60;4.60;;;8.30;99.90;;;;;;5032240;22;20056;-93
2022/01/27 12:20:10;;;;;;;16.97;4.47;;;9.20;99.90;;;;;;5034070;28;20495;-94
2022/01/27 12:23:27;;;;;;;15.83;4.43;;;8.60;99.90;;;;;;5034379;22;20042;-94
2022/01/27 12:25:53;;;;;;;14.80;4.27;;;8.50;99.90;;;;;;4974026;28;20089;-93
2022/01/27 12:28:20;;;;;;;16.30;3.80;;;8.80;99.90;;;;;;4957630;28;20140;-95
2022/01/27 12:30:56;;;;;;;15.93;3.77;;;9.60;99.90;;;;;;4956825;28;20043;-95
2022/01/27 12:33:21;;;;;;;17.67;3.60;;;8.90;99.90;;;;;;4958059;28;20051;-96
2022/01/27 12:35:55;;;;;;;18.53;4.20;;;8.30;99.90;;;;;;4960218;28;20173;-94
2022/01/27 12:38:22;;;;;;;13.93;3.47;;;8.40;99.90;;;;;;4957771;28;20054;-95
2022/01/27 12:40:55;;;;;;;16.60;3.83;;;8.40;99.90;;;;;;4960196;28;20058;-95
2022/01/27 12:43:21;;;;;;;15.77;3.57;;;8.50;99.90;;;;;;4956323;28;20400;-91
2022/01/27 12:46:13;;;;;;;14.90;3.23;;;8.40;99.90;;;;;;4972595;28;20046;-93
2022/01/27 12:48:47;;;;;;;11.40;3.03;;;8.80;99.90;;;;;;4957605;28;20062;-91
2022/01/27 12:51:23;;;;;;;;;;;8.50;99.90;;;;;;4957417;28;20043;-93
2022/01/27 12:54:02;;;;;;;12.73;3.47;;;10.00;99.90;;;;;;5000097;28;20375;-93
2022/01/27 12:56:31;;;;;;;17.73;3.27;;;8.60;99.90;;;;;;5012564;28;20114;-94
2022/01/27 12:59:00;;;;;;;14.80;3.57;;;8.70;99.90;;;;;;5027748;28;20473;-96
2022/01/27 13:01:41;;;;;;;15.23;3.07;;;8.60;99.90;;;;;;5027748;22;20101;-95
2022/01/27 13:04:09;;;;;;;13.10;3.07;;;8.80;99.90;;;;;;5033988;28;20386;-93
2022/01/27 13:06:38;;;;;;;14.63;3.03;;;8.90;99.90;;;;;;5032280;28;20045;-94
2022/01/27 13:09:18;;;;;;;17.87;3.43;;;8.60;99.90;;;;;;5032262;22;20045;-93
2022/01/27 13:11:46;;;;;;;17.10;4.47;;;10.10;99.90;;;;;;5032132;28;20457;-95
2022/01/27 13:14:17;;;;;;;15.87;3.43;;;9.50;99.90;;;;;;5031840;28;20033;-92
2022/01/27 13:16:52;;;;;;;15.43;3.70;;;8.10;99.90;;;;;;5032688;28;20049;-93
2022/01/27 13:19:29;;;;;;;15.13;3.43;;;8.70;99.90;;;;;;5032981;28;20405;-92
2022/01/27 13:22:01;;;;;;;17.73;4.43;;;8.60;99.90;;;;;;5032170;28;20048;-94
2022/01/27 13:24:28;;;;;;;12.87;3.23;;;8.60;99.90;;;;;;5032194;28;20049;-93
2022/01/27 13:27:13;;;;;;;17.00;3.77;;;8.70;99.90;;;;;;5032215;28;20049;-91
2022/01/27 13:30:02;;;;;;;12.17;3.67;;;8.50;99.90;;;;;;5034059;28;20107;-94
2022/01/27 13:32:28;;;;;;;19.10;5.53;;;8.80;99.90;;;;;;4972186;28;20058;-93
2022/01/27 13:35:01;;;;;;;17.50;5.70;;;8.80;99.90;;;;;;5022941;28;20057;-94
2022/01/27 13:37:30;;;;;;;15.63;3.05;;;8.80;99.90;;;;;;5032479;28;20606;-92
2022/01/27 13:42:50;;;;;;;14.70;3.30;;;8.60;99.90;;;;;;5031682;28;20053;-93
2022/01/27 13:45:18;;;;;;;16.60;4.07;;;9.80;99.90;;;;;;5029756;28;20445;-93
2022/01/27 13:47:43;;;;;;;13.50;3.80;;;8.60;99.90;;;;;;5031457;28;20037;-94
2022/01/27 13:50:18;;;;;;;17.93;3.67;;;10.00;99.90;;;;;;5032523;28;20436;-92
2022/01/27 13:52:50;;;;;;;15.23;3.50;;;8.60;99.90;;;;;;5031942;28;20497;-93
2022/01/27 13:55:22;;;;;;;17.77;3.60;;;9.10;99.90;;;;;;5031888;28;20049;-92
2022/01/27 13:58:22;;;;;;;16.37;3.47;;;8.50;99.90;;;;;;5032344;28;20111;-92
2022/01/27 14:03:19;;;;;;;16.67;3.00;;;8.80;99.90;;;;;;5035901;28;20418;-91
2022/01/27 14:06:18;;;;;;;14.73;3.33;;;8.80;99.90;;;;;;5015689;28;20049;-93
2022/01/27 14:08:47;;;;;;;19.77;3.37;;;8.60;99.90;;;;;;5015246;28;20083;-93
2022/01/27 14:11:19;;;;;;;15.40;2.80;;;8.50;99.90;;;;;;5015516;28;20056;-93
2022/01/27 14:14:18;;;;;;;14.27;3.03;;;9.60;99.90;;;;;;5014291;28;20485;-93
2022/01/27 14:16:47;;;;;;;19.13;3.30;;;9.10;99.90;;;;;;4955426;28;20061;-93
2022/01/27 14:19:39;;;;;;;18.10;3.53;;;9.00;99.90;;;;;;4970475;28;20143;-94
2022/01/27 14:22:16;;;;;;;18.27;3.07;;;9.40;99.90;;;;;;5015446;28;20038;-93
2022/01/27 14:25:09;;;;;;;14.57;3.40;;;8.40;99.90;;;;;;5015231;28;20128;-93
2022/01/27 14:27:44;;;;;;;12.70;2.57;;;8.50;99.90;;;;;;5015145;28;20050;-93
2022/01/27 14:30:28;;;;;;;16.33;3.67;;;8.20;99.90;;;;;;5014857;28;20042;-93
2022/01/27 14:33:01;;;;;;;15.88;3.10;;;8.10;99.90;;;;;;5015893;28;20042;-92